sensor_id;sensor_type;location;lat;lon;timestamp;P1;P2;P0
56688;PMS5003;42565;53.342;-1.534;2023-07-31T00:01:16;1;1;
56688;PMS5003;42565;53.342;-1.534;2023-07-31T00:03:43;1;1;
56688;PMS5003;42565;53.342;-1.534;2023-07-31T00:06:11;0;0;
56688;PMS5003;42565;53.342;-1.534;2023-07-31T00:08:38;1;1;
56688;PMS5003;42565;53.342;-1.534;2023-07-31T00:11:06;1;1;
56688;PMS5003;42565;53.342;-1.534;2023-07-31T00:13:33;1;1;
56688;PMS5003;42565;53.342;-1.534;2023-07-31T00:16:01;1;1;
56688;PMS5003;42565;53.342;-1.534;2023-07-31T00:18:28;0;0;
56688;PMS5003;42565;53.342;-1.534;2023-07-31T00:20:56;2;1;
56688;PMS5003;42565;53.342;-1.534;2023-07-31T00:23:23;1;1;
56688;PMS5003;42565;53.342;-1.534;2023-07-31T00:25:51;0;0;
56688;PMS5003;42565;53.342;-1.534;2023-07-31T00:28:18;1;1;
56688;PMS5003;42565;53.342;-1.534;2023-07-31T00:30:46;0;0;
56688;PMS5003;42565;53.342;-1.534;2023-07-31T00:33:13;0;0;
56688;PMS5003;42565;53.342;-1.534;2023-07-31T00:35:41;0;0;
56688;PMS5003;42565;53.342;-1.534;2023-07-31T00:38:08;2;1;
56688;PMS5003;42565;53.342;-1.534;2023-07-31T00:40:36;1;1;
56688;PMS5003;42565;53.342;-1.534;2023-07-31T00:43:03;1;0;
56688;PMS5003;42565;53.342;-1.534;2023-07-31T00:45:31;0;0;
56688;PMS5003;42565;53.342;-1.534;2023-07-31T00:47:59;1;1;
56688;PMS5003;42565;53.342;-1.534;2023-07-31T00:50:27;0;0;
56688;PMS5003;42565;53.342;-1.534;2023-07-31T00:52:55;0;0;
56688;PMS5003;42565;53.342;-1.534;2023-07-31T00:55:23;1;0;
56688;PMS5003;42565;53.342;-1.534;2023-07-31T00:57:50;0;0;
56688;PMS5003;42565;53.342;-1.534;2023-07-31T01:00:18;0;0;
56688;PMS5003;42565;53.342;-1.534;2023-07-31T01:02:46;0;0;
56688;PMS5003;42565;53.342;-1.534;2023-07-31T01:05:14;1;1;
56688;PMS5003;42565;53.342;-1.534;2023-07-31T01:07:44;0;0;
56688;PMS5003;42565;53.342;-1.534;2023-07-31T01:10:18;0;0;
56688;PMS5003;42565;53.342;-1.534;2023-07-31T01:12:50;0;0;
56688;PMS5003;42565;53.342;-1.534;2023-07-31T01:15:20;0;0;
56688;PMS5003;42565;53.342;-1.534;2023-07-31T01:17:47;0;0;
56688;PMS5003;42565;53.342;-1.534;2023-07-31T01:20:15;0;0;
56688;PMS5003;42565;53.342;-1.534;2023-07-31T01:22:51;0;0;
56688;PMS5003;42565;53.342;-1.534;2023-07-31T01:28:24;0;0;
56688;PMS5003;42565;53.342;-1.534;2023-07-31T01:30:56;0;0;
56688;PMS5003;42565;53.342;-1.534;2023-07-31T01:33:26;0;0;
56688;PMS5003;42565;53.342;-1.534;2023-07-31T01:35:55;0;0;
56688;PMS5003;42565;53.342;-1.534;2023-07-31T01:38:22;0;0;
56688;PMS5003;42565;53.342;-1.534;2023-07-31T01:40:50;0;0;
56688;PMS5003;42565;53.342;-1.534;2023-07-31T01:43:18;0;0;
56688;PMS5003;42565;53.342;-1.534;2023-07-31T01:45:52;0;0;
56688;PMS5003;42565;53.342;-1.534;2023-07-31T01:48:20;0;0;
56688;PMS5003;42565;53.342;-1.534;2023-07-31T01:50:48;0;0;
56688;PMS5003;42565;53.342;-1.534;2023-07-31T01:53:15;0;0;
56688;PMS5003;42565;53.342;-1.534;2023-07-31T01:55:43;0;0;
56688;PMS5003;42565;53.342;-1.534;2023-07-31T01:58:10;0;0;
56688;PMS5003;42565;53.342;-1.534;2023-07-31T02:00:38;0;0;
56688;PMS5003;42565;53.342;-1.534;2023-07-31T02:03:05;0;0;
56688;PMS5003;42565;53.342;-1.534;2023-07-31T02:05:32;0;0;
56688;PMS5003;42565;53.342;-1.534;2023-07-31T02:07:58;0;0;
56688;PMS5003;42565;53.342;-1.534;2023-07-31T02:10:26;0;0;
56688;PMS5003;42565;53.342;-1.534;2023-07-31T02:12:53;0;0;
56688;PMS5003;42565;53.342;-1.534;2023-07-31T02:15:21;0;0;
56688;PMS5003;42565;53.342;-1.534;2023-07-31T02:17:48;0;0;
56688;PMS5003;42565;53.342;-1.534;2023-07-31T02:20:16;0;0;
56688;PMS5003;42565;53.342;-1.534;2023-07-31T02:22:43;0;0;
56688;PMS5003;42565;53.342;-1.534;2023-07-31T02:25:11;0;0;
56688;PMS5003;42565;53.342;-1.534;2023-07-31T02:27:38;0;0;
56688;PMS5003;42565;53.342;-1.534;2023-07-31T02:30:06;0;0;
56688;PMS5003;42565;53.342;-1.534;2023-07-31T02:32:34;0;0;
56688;PMS5003;42565;53.342;-1.534;2023-07-31T02:35:01;0;0;
56688;PMS5003;42565;53.342;-1.534;2023-07-31T02:37:28;0;0;
56688;PMS5003;42565;53.342;-1.534;2023-07-31T02:39:56;0;0;
56688;PMS5003;42565;53.342;-1.534;2023-07-31T02:42:23;0;0;
56688;PMS5003;42565;53.342;-1.534;2023-07-31T02:44:50;0;0;
56688;PMS5003;42565;53.342;-1.534;2023-07-31T02:47:17;0;0;
56688;PMS5003;42565;53.342;-1.534;2023-07-31T02:49:45;0;0;
56688;PMS5003;42565;53.342;-1.534;2023-07-31T02:52:12;0;0;
56688;PMS5003;42565;53.342;-1.534;2023-07-31T02:54:40;0;0;
56688;PMS5003;42565;53.342;-1.534;2023-07-31T02:57:08;0;0;
56688;PMS5003;42565;53.342;-1.534;2023-07-31T02:59:35;0;0;
56688;PMS5003;42565;53.342;-1.534;2023-07-31T03:02:03;0;0;
56688;PMS5003;42565;53.342;-1.534;2023-07-31T03:04:30;0;0;
56688;PMS5003;42565;53.342;-1.534;2023-07-31T03:06:57;0;0;
56688;PMS5003;42565;53.342;-1.534;2023-07-31T03:09:25;0;0;
56688;PMS5003;42565;53.342;-1.534;2023-07-31T03:11:52;0;0;
56688;PMS5003;42565;53.342;-1.534;2023-07-31T03:14:20;0;0;
56688;PMS5003;42565;53.342;-1.534;2023-07-31T03:16:47;0;0;
56688;PMS5003;42565;53.342;-1.534;2023-07-31T03:19:15;0;0;
56688;PMS5003;42565;53.342;-1.534;2023-07-31T03:21:42;0;0;
56688;PMS5003;42565;53.342;-1.534;2023-07-31T03:24:10;1;1;
56688;PMS5003;42565;53.342;-1.534;2023-07-31T03:26:37;0;0;
56688;PMS5003;42565;53.342;-1.534;2023-07-31T03:29:05;1;1;
56688;PMS5003;42565;53.342;-1.534;2023-07-31T03:31:32;1;1;
56688;PMS5003;42565;53.342;-1.534;2023-07-31T03:33:59;0;0;
56688;PMS5003;42565;53.342;-1.534;2023-07-31T03:36:26;2;2;
56688;PMS5003;42565;53.342;-1.534;2023-07-31T03:38:53;1;1;
56688;PMS5003;42565;53.342;-1.534;2023-07-31T03:41:21;2;2;
56688;PMS5003;42565;53.342;-1.534;2023-07-31T03:43:49;1;1;
56688;PMS5003;42565;53.342;-1.534;2023-07-31T03:46:17;1;1;
56688;PMS5003;42565;53.342;-1.534;2023-07-31T03:48:44;2;2;
56688;PMS5003;42565;53.342;-1.534;2023-07-31T03:51:11;2;2;
56688;PMS5003;42565;53.342;-1.534;2023-07-31T03:53:39;1;1;
56688;PMS5003;42565;53.342;-1.534;2023-07-31T03:56:06;1;1;
56688;PMS5003;42565;53.342;-1.534;2023-07-31T03:58:34;1;1;
56688;PMS5003;42565;53.342;-1.534;2023-07-31T04:01:01;3;2;
56688;PMS5003;42565;53.342;-1.534;2023-07-31T04:03:29;2;2;
56688;PMS5003;42565;53.342;-1.534;2023-07-31T04:05:56;2;2;
56688;PMS5003;42565;53.342;-1.534;2023-07-31T04:08:23;2;2;
56688;PMS5003;42565;53.342;-1.534;2023-07-31T04:10:51;2;2;
56688;PMS5003;42565;53.342;-1.534;2023-07-31T04:13:19;1;1;
56688;PMS5003;42565;53.342;-1.534;2023-07-31T04:15:48;1;1;
56688;PMS5003;42565;53.342;-1.534;2023-07-31T04:18:15;1;1;
56688;PMS5003;42565;53.342;-1.534;2023-07-31T04:20:43;1;1;
56688;PMS5003;42565;53.342;-1.534;2023-07-31T04:23:10;1;1;
56688;PMS5003;42565;53.342;-1.534;2023-07-31T04:25:38;1;1;
56688;PMS5003;42565;53.342;-1.534;2023-07-31T04:28:05;2;2;
56688;PMS5003;42565;53.342;-1.534;2023-07-31T04:30:32;3;2;
56688;PMS5003;42565;53.342;-1.534;2023-07-31T04:32:59;1;1;
56688;PMS5003;42565;53.342;-1.534;2023-07-31T04:35:27;1;1;
56688;PMS5003;42565;53.342;-1.534;2023-07-31T04:37:54;1;0;
56688;PMS5003;42565;53.342;-1.534;2023-07-31T04:40:21;1;1;
56688;PMS5003;42565;53.342;-1.534;2023-07-31T04:42:49;2;2;
56688;PMS5003;42565;53.342;-1.534;2023-07-31T04:45:16;3;2;
56688;PMS5003;42565;53.342;-1.534;2023-07-31T04:47:43;1;1;
56688;PMS5003;42565;53.342;-1.534;2023-07-31T04:50:11;2;2;
56688;PMS5003;42565;53.342;-1.534;2023-07-31T04:52:39;1;1;
56688;PMS5003;42565;53.342;-1.534;2023-07-31T04:55:06;1;1;
56688;PMS5003;42565;53.342;-1.534;2023-07-31T04:57:34;1;1;
56688;PMS5003;42565;53.342;-1.534;2023-07-31T05:00:02;1;1;
56688;PMS5003;42565;53.342;-1.534;2023-07-31T05:02:30;1;0;
56688;PMS5003;42565;53.342;-1.534;2023-07-31T05:04:58;2;2;
56688;PMS5003;42565;53.342;-1.534;2023-07-31T05:07:25;2;2;
56688;PMS5003;42565;53.342;-1.534;2023-07-31T05:09:53;1;1;
56688;PMS5003;42565;53.342;-1.534;2023-07-31T05:12:20;2;2;
56688;PMS5003;42565;53.342;-1.534;2023-07-31T05:14:48;2;2;
56688;PMS5003;42565;53.342;-1.534;2023-07-31T05:17:15;1;1;
56688;PMS5003;42565;53.342;-1.534;2023-07-31T05:19:43;1;1;
56688;PMS5003;42565;53.342;-1.534;2023-07-31T05:22:10;1;1;
56688;PMS5003;42565;53.342;-1.534;2023-07-31T05:24:38;0;0;
56688;PMS5003;42565;53.342;-1.534;2023-07-31T05:27:05;1;1;
56688;PMS5003;42565;53.342;-1.534;2023-07-31T05:29:33;2;2;
56688;PMS5003;42565;53.342;-1.534;2023-07-31T05:32:00;2;2;
56688;PMS5003;42565;53.342;-1.534;2023-07-31T05:34:28;1;1;
56688;PMS5003;42565;53.342;-1.534;2023-07-31T05:36:55;3;2;
56688;PMS5003;42565;53.342;-1.534;2023-07-31T05:39:22;3;2;
56688;PMS5003;42565;53.342;-1.534;2023-07-31T05:41:57;2;2;
56688;PMS5003;42565;53.342;-1.534;2023-07-31T05:44:25;2;0;
56688;PMS5003;42565;53.342;-1.534;2023-07-31T05:47:04;0;0;
56688;PMS5003;42565;53.342;-1.534;2023-07-31T05:49:31;2;2;
56688;PMS5003;42565;53.342;-1.534;2023-07-31T05:51:59;1;1;
56688;PMS5003;42565;53.342;-1.534;2023-07-31T05:54:27;3;2;
56688;PMS5003;42565;53.342;-1.534;2023-07-31T05:56:54;1;1;
56688;PMS5003;42565;53.342;-1.534;2023-07-31T05:59:22;3;3;
56688;PMS5003;42565;53.342;-1.534;2023-07-31T06:01:49;2;2;
56688;PMS5003;42565;53.342;-1.534;2023-07-31T06:04:16;3;2;
56688;PMS5003;42565;53.342;-1.534;2023-07-31T06:06:44;4;3;
56688;PMS5003;42565;53.342;-1.534;2023-07-31T06:09:11;2;1;
56688;PMS5003;42565;53.342;-1.534;2023-07-31T06:11:39;3;3;
56688;PMS5003;42565;53.342;-1.534;2023-07-31T06:14:06;2;2;
56688;PMS5003;42565;53.342;-1.534;2023-07-31T06:16:34;2;2;
56688;PMS5003;42565;53.342;-1.534;2023-07-31T06:19:02;1;1;
56688;PMS5003;42565;53.342;-1.534;2023-07-31T06:21:29;2;2;
56688;PMS5003;42565;53.342;-1.534;2023-07-31T06:23:57;2;2;
56688;PMS5003;42565;53.342;-1.534;2023-07-31T06:26:24;3;2;
56688;PMS5003;42565;53.342;-1.534;2023-07-31T06:28:51;3;3;
56688;PMS5003;42565;53.342;-1.534;2023-07-31T06:31:19;4;4;
56688;PMS5003;42565;53.342;-1.534;2023-07-31T06:33:46;3;3;
56688;PMS5003;42565;53.342;-1.534;2023-07-31T06:36:14;5;3;
56688;PMS5003;42565;53.342;-1.534;2023-07-31T06:38:41;1;1;
56688;PMS5003;42565;53.342;-1.534;2023-07-31T06:41:09;4;4;
56688;PMS5003;42565;53.342;-1.534;2023-07-31T06:43:36;4;4;
56688;PMS5003;42565;53.342;-1.534;2023-07-31T06:46:04;3;2;
56688;PMS5003;42565;53.342;-1.534;2023-07-31T06:48:31;5;5;
56688;PMS5003;42565;53.342;-1.534;2023-07-31T06:51:00;4;4;
56688;PMS5003;42565;53.342;-1.534;2023-07-31T06:53:27;4;4;
56688;PMS5003;42565;53.342;-1.534;2023-07-31T06:55:55;5;5;
56688;PMS5003;42565;53.342;-1.534;2023-07-31T06:58:23;4;3;
56688;PMS5003;42565;53.342;-1.534;2023-07-31T07:00:50;5;4;
56688;PMS5003;42565;53.342;-1.534;2023-07-31T07:03:18;4;4;
56688;PMS5003;42565;53.342;-1.534;2023-07-31T07:05:45;4;4;
56688;PMS5003;42565;53.342;-1.534;2023-07-31T07:08:12;3;3;
56688;PMS5003;42565;53.342;-1.534;2023-07-31T07:10:40;3;3;
56688;PMS5003;42565;53.342;-1.534;2023-07-31T07:13:07;4;4;
56688;PMS5003;42565;53.342;-1.534;2023-07-31T07:15:34;4;4;
56688;PMS5003;42565;53.342;-1.534;2023-07-31T07:18:02;4;4;
56688;PMS5003;42565;53.342;-1.534;2023-07-31T07:20:29;4;4;
56688;PMS5003;42565;53.342;-1.534;2023-07-31T07:22:57;6;5;
56688;PMS5003;42565;53.342;-1.534;2023-07-31T07:25:23;4;3;
56688;PMS5003;42565;53.342;-1.534;2023-07-31T07:27:51;4;2;
56688;PMS5003;42565;53.342;-1.534;2023-07-31T07:30:18;3;3;
56688;PMS5003;42565;53.342;-1.534;2023-07-31T07:32:46;3;3;
56688;PMS5003;42565;53.342;-1.534;2023-07-31T07:35:13;6;4;
56688;PMS5003;42565;53.342;-1.534;2023-07-31T07:37:41;6;6;
56688;PMS5003;42565;53.342;-1.534;2023-07-31T07:40:08;5;4;
56688;PMS5003;42565;53.342;-1.534;2023-07-31T07:42:36;6;6;
56688;PMS5003;42565;53.342;-1.534;2023-07-31T07:45:04;5;5;
56688;PMS5003;42565;53.342;-1.534;2023-07-31T07:47:32;3;3;
56688;PMS5003;42565;53.342;-1.534;2023-07-31T07:49:59;5;4;
56688;PMS5003;42565;53.342;-1.534;2023-07-31T07:52:26;4;4;
56688;PMS5003;42565;53.342;-1.534;2023-07-31T07:54:54;5;3;
56688;PMS5003;42565;53.342;-1.534;2023-07-31T07:57:22;5;4;
56688;PMS5003;42565;53.342;-1.534;2023-07-31T07:59:49;5;4;
56688;PMS5003;42565;53.342;-1.534;2023-07-31T08:02:17;4;4;
56688;PMS5003;42565;53.342;-1.534;2023-07-31T08:04:44;4;4;
56688;PMS5003;42565;53.342;-1.534;2023-07-31T08:07:12;2;2;
56688;PMS5003;42565;53.342;-1.534;2023-07-31T08:09:39;7;6;
56688;PMS5003;42565;53.342;-1.534;2023-07-31T08:12:07;5;4;
56688;PMS5003;42565;53.342;-1.534;2023-07-31T08:14:34;5;3;
56688;PMS5003;42565;53.342;-1.534;2023-07-31T08:17:02;5;4;
56688;PMS5003;42565;53.342;-1.534;2023-07-31T08:19:29;7;6;
56688;PMS5003;42565;53.342;-1.534;2023-07-31T08:21:57;4;4;
56688;PMS5003;42565;53.342;-1.534;2023-07-31T08:24:24;6;5;
56688;PMS5003;42565;53.342;-1.534;2023-07-31T08:26:51;5;5;
56688;PMS5003;42565;53.342;-1.534;2023-07-31T08:29:18;5;3;
56688;PMS5003;42565;53.342;-1.534;2023-07-31T08:31:46;4;4;
56688;PMS5003;42565;53.342;-1.534;2023-07-31T08:34:13;6;6;
56688;PMS5003;42565;53.342;-1.534;2023-07-31T08:36:41;5;5;
56688;PMS5003;42565;53.342;-1.534;2023-07-31T08:39:08;6;5;
56688;PMS5003;42565;53.342;-1.534;2023-07-31T08:41:37;5;5;
56688;PMS5003;42565;53.342;-1.534;2023-07-31T08:44:04;8;7;
56688;PMS5003;42565;53.342;-1.534;2023-07-31T08:46:31;6;6;
56688;PMS5003;42565;53.342;-1.534;2023-07-31T08:49:00;5;5;
56688;PMS5003;42565;53.342;-1.534;2023-07-31T08:51:31;6;4;
56688;PMS5003;42565;53.342;-1.534;2023-07-31T08:54:00;5;5;
56688;PMS5003;42565;53.342;-1.534;2023-07-31T08:56:28;6;6;
56688;PMS5003;42565;53.342;-1.534;2023-07-31T08:58:55;5;5;
56688;PMS5003;42565;53.342;-1.534;2023-07-31T09:01:24;6;6;
56688;PMS5003;42565;53.342;-1.534;2023-07-31T09:03:55;6;4;
56688;PMS5003;42565;53.342;-1.534;2023-07-31T09:06:24;6;5;
56688;PMS5003;42565;53.342;-1.534;2023-07-31T09:08:56;3;3;
56688;PMS5003;42565;53.342;-1.534;2023-07-31T09:11:24;8;6;
56688;PMS5003;42565;53.342;-1.534;2023-07-31T09:13:53;7;7;
56688;PMS5003;42565;53.342;-1.534;2023-07-31T09:16:27;6;5;
56688;PMS5003;42565;53.342;-1.534;2023-07-31T09:18:55;4;4;
56688;PMS5003;42565;53.342;-1.534;2023-07-31T09:21:23;6;6;
56688;PMS5003;42565;53.342;-1.534;2023-07-31T09:23:51;5;5;
56688;PMS5003;42565;53.342;-1.534;2023-07-31T09:26:34;4;4;
56688;PMS5003;42565;53.342;-1.534;2023-07-31T09:29:05;4;4;
56688;PMS5003;42565;53.342;-1.534;2023-07-31T09:31:33;4;4;
56688;PMS5003;42565;53.342;-1.534;2023-07-31T09:34:06;5;5;
56688;PMS5003;42565;53.342;-1.534;2023-07-31T09:36:39;4;4;
56688;PMS5003;42565;53.342;-1.534;2023-07-31T09:39:08;5;5;
56688;PMS5003;42565;53.342;-1.534;2023-07-31T09:41:36;6;5;
56688;PMS5003;42565;53.342;-1.534;2023-07-31T09:44:03;5;5;
56688;PMS5003;42565;53.342;-1.534;2023-07-31T09:46:31;6;5;
56688;PMS5003;42565;53.342;-1.534;2023-07-31T09:49:05;5;4;
56688;PMS5003;42565;53.342;-1.534;2023-07-31T09:51:33;5;5;
56688;PMS5003;42565;53.342;-1.534;2023-07-31T09:54:00;4;4;
56688;PMS5003;42565;53.342;-1.534;2023-07-31T09:56:28;4;2;
56688;PMS5003;42565;53.342;-1.534;2023-07-31T09:58:58;5;4;
56688;PMS5003;42565;53.342;-1.534;2023-07-31T10:01:25;6;5;
56688;PMS5003;42565;53.342;-1.534;2023-07-31T10:03:53;4;4;
56688;PMS5003;42565;53.342;-1.534;2023-07-31T10:06:20;8;6;
56688;PMS5003;42565;53.342;-1.534;2023-07-31T10:08:48;4;4;
56688;PMS5003;42565;53.342;-1.534;2023-07-31T10:11:18;3;3;
56688;PMS5003;42565;53.342;-1.534;2023-07-31T10:13:47;5;5;
56688;PMS5003;42565;53.342;-1.534;2023-07-31T10:16:14;6;4;
56688;PMS5003;42565;53.342;-1.534;2023-07-31T10:18:43;5;4;
56688;PMS5003;42565;53.342;-1.534;2023-07-31T10:21:11;5;5;
56688;PMS5003;42565;53.342;-1.534;2023-07-31T10:23:38;6;4;
56688;PMS5003;42565;53.342;-1.534;2023-07-31T10:26:07;7;7;
56688;PMS5003;42565;53.342;-1.534;2023-07-31T10:28:34;8;7;
56688;PMS5003;42565;53.342;-1.534;2023-07-31T10:31:03;6;6;
56688;PMS5003;42565;53.342;-1.534;2023-07-31T10:33:31;5;5;
56688;PMS5003;42565;53.342;-1.534;2023-07-31T10:36:16;7;5;
56688;PMS5003;42565;53.342;-1.534;2023-07-31T10:38:44;6;6;
56688;PMS5003;42565;53.342;-1.534;2023-07-31T10:41:14;5;5;
56688;PMS5003;42565;53.342;-1.534;2023-07-31T10:43:42;7;6;
56688;PMS5003;42565;53.342;-1.534;2023-07-31T10:46:11;5;5;
56688;PMS5003;42565;53.342;-1.534;2023-07-31T10:48:39;5;5;
56688;PMS5003;42565;53.342;-1.534;2023-07-31T10:51:07;6;5;
56688;PMS5003;42565;53.342;-1.534;2023-07-31T10:53:35;4;4;
56688;PMS5003;42565;53.342;-1.534;2023-07-31T10:56:03;2;2;
56688;PMS5003;42565;53.342;-1.534;2023-07-31T10:58:32;4;4;
56688;PMS5003;42565;53.342;-1.534;2023-07-31T11:01:01;4;4;
56688;PMS5003;42565;53.342;-1.534;2023-07-31T11:03:45;4;3;
56688;PMS5003;42565;53.342;-1.534;2023-07-31T11:06:15;4;4;
56688;PMS5003;42565;53.342;-1.534;2023-07-31T11:08:43;4;4;
56688;PMS5003;42565;53.342;-1.534;2023-07-31T11:11:11;4;4;
56688;PMS5003;42565;53.342;-1.534;2023-07-31T11:13:40;3;2;
56688;PMS5003;42565;53.342;-1.534;2023-07-31T11:16:09;4;4;
56688;PMS5003;42565;53.342;-1.534;2023-07-31T11:18:38;7;5;
56688;PMS5003;42565;53.342;-1.534;2023-07-31T11:21:06;6;3;
56688;PMS5003;42565;53.342;-1.534;2023-07-31T11:23:33;2;2;
56688;PMS5003;42565;53.342;-1.534;2023-07-31T11:26:04;5;4;
56688;PMS5003;42565;53.342;-1.534;2023-07-31T11:28:33;5;4;
56688;PMS5003;42565;53.342;-1.534;2023-07-31T11:31:00;5;5;
56688;PMS5003;42565;53.342;-1.534;2023-07-31T11:33:28;4;4;
56688;PMS5003;42565;53.342;-1.534;2023-07-31T11:35:55;4;4;
56688;PMS5003;42565;53.342;-1.534;2023-07-31T11:38:23;5;5;
56688;PMS5003;42565;53.342;-1.534;2023-07-31T11:40:52;6;5;
56688;PMS5003;42565;53.342;-1.534;2023-07-31T11:43:20;5;4;
56688;PMS5003;42565;53.342;-1.534;2023-07-31T11:45:49;5;4;
56688;PMS5003;42565;53.342;-1.534;2023-07-31T11:48:18;6;5;
56688;PMS5003;42565;53.342;-1.534;2023-07-31T11:50:47;5;4;
56688;PMS5003;42565;53.342;-1.534;2023-07-31T11:53:16;5;4;
56688;PMS5003;42565;53.342;-1.534;2023-07-31T11:55:45;4;4;
56688;PMS5003;42565;53.342;-1.534;2023-07-31T11:58:13;6;6;
56688;PMS5003;42565;53.342;-1.534;2023-07-31T12:00:42;5;4;
56688;PMS5003;42565;53.342;-1.534;2023-07-31T12:03:10;6;5;
56688;PMS5003;42565;53.342;-1.534;2023-07-31T12:05:37;6;6;
56688;PMS5003;42565;53.342;-1.534;2023-07-31T12:08:08;7;5;
56688;PMS5003;42565;53.342;-1.534;2023-07-31T12:10:37;7;5;
56688;PMS5003;42565;53.342;-1.534;2023-07-31T12:13:05;4;4;
56688;PMS5003;42565;53.342;-1.534;2023-07-31T12:15:37;5;5;
56688;PMS5003;42565;53.342;-1.534;2023-07-31T12:18:06;5;5;
56688;PMS5003;42565;53.342;-1.534;2023-07-31T12:20:34;5;5;
56688;PMS5003;42565;53.342;-1.534;2023-07-31T12:23:02;5;5;
56688;PMS5003;42565;53.342;-1.534;2023-07-31T12:25:29;5;5;
56688;PMS5003;42565;53.342;-1.534;2023-07-31T12:27:57;7;7;
56688;PMS5003;42565;53.342;-1.534;2023-07-31T12:30:31;7;7;
56688;PMS5003;42565;53.342;-1.534;2023-07-31T12:33:04;4;4;
56688;PMS5003;42565;53.342;-1.534;2023-07-31T12:35:35;6;5;
56688;PMS5003;42565;53.342;-1.534;2023-07-31T12:38:03;6;5;
56688;PMS5003;42565;53.342;-1.534;2023-07-31T12:40:31;6;5;
56688;PMS5003;42565;53.342;-1.534;2023-07-31T12:43:00;6;6;
56688;PMS5003;42565;53.342;-1.534;2023-07-31T12:45:27;5;5;
56688;PMS5003;42565;53.342;-1.534;2023-07-31T12:47:55;4;4;
56688;PMS5003;42565;53.342;-1.534;2023-07-31T12:50:23;5;5;
56688;PMS5003;42565;53.342;-1.534;2023-07-31T12:52:50;5;5;
56688;PMS5003;42565;53.342;-1.534;2023-07-31T12:55:18;5;3;
56688;PMS5003;42565;53.342;-1.534;2023-07-31T12:57:45;4;4;
56688;PMS5003;42565;53.342;-1.534;2023-07-31T13:00:13;4;4;
56688;PMS5003;42565;53.342;-1.534;2023-07-31T13:02:40;10;6;
56688;PMS5003;42565;53.342;-1.534;2023-07-31T13:05:08;5;5;
56688;PMS5003;42565;53.342;-1.534;2023-07-31T13:07:35;4;3;
56688;PMS5003;42565;53.342;-1.534;2023-07-31T13:10:03;6;5;
56688;PMS5003;42565;53.342;-1.534;2023-07-31T13:12:31;4;4;
56688;PMS5003;42565;53.342;-1.534;2023-07-31T13:14:58;4;4;
56688;PMS5003;42565;53.342;-1.534;2023-07-31T13:17:26;5;5;
56688;PMS5003;42565;53.342;-1.534;2023-07-31T13:19:53;7;6;
56688;PMS5003;42565;53.342;-1.534;2023-07-31T13:22:21;8;5;
56688;PMS5003;42565;53.342;-1.534;2023-07-31T13:24:48;5;4;
56688;PMS5003;42565;53.342;-1.534;2023-07-31T13:27:16;3;3;
56688;PMS5003;42565;53.342;-1.534;2023-07-31T13:29:44;6;6;
56688;PMS5003;42565;53.342;-1.534;2023-07-31T13:32:11;6;5;
56688;PMS5003;42565;53.342;-1.534;2023-07-31T13:34:39;4;4;
56688;PMS5003;42565;53.342;-1.534;2023-07-31T13:37:06;5;5;
56688;PMS5003;42565;53.342;-1.534;2023-07-31T13:39:34;4;4;
56688;PMS5003;42565;53.342;-1.534;2023-07-31T13:42:02;3;2;
56688;PMS5003;42565;53.342;-1.534;2023-07-31T13:44:30;5;5;
56688;PMS5003;42565;53.342;-1.534;2023-07-31T13:46:57;5;5;
56688;PMS5003;42565;53.342;-1.534;2023-07-31T13:49:24;5;5;
56688;PMS5003;42565;53.342;-1.534;2023-07-31T13:51:51;4;3;
56688;PMS5003;42565;53.342;-1.534;2023-07-31T13:54:18;5;5;
56688;PMS5003;42565;53.342;-1.534;2023-07-31T13:56:46;6;5;
56688;PMS5003;42565;53.342;-1.534;2023-07-31T13:59:14;6;6;
56688;PMS5003;42565;53.342;-1.534;2023-07-31T14:01:41;5;4;
56688;PMS5003;42565;53.342;-1.534;2023-07-31T14:04:09;5;5;
56688;PMS5003;42565;53.342;-1.534;2023-07-31T14:06:36;4;4;
56688;PMS5003;42565;53.342;-1.534;2023-07-31T14:09:04;5;5;
56688;PMS5003;42565;53.342;-1.534;2023-07-31T14:11:31;5;4;
56688;PMS5003;42565;53.342;-1.534;2023-07-31T14:13:59;5;4;
56688;PMS5003;42565;53.342;-1.534;2023-07-31T14:16:26;7;5;
56688;PMS5003;42565;53.342;-1.534;2023-07-31T14:18:54;7;5;
56688;PMS5003;42565;53.342;-1.534;2023-07-31T14:21:21;4;4;
56688;PMS5003;42565;53.342;-1.534;2023-07-31T14:23:49;5;4;
56688;PMS5003;42565;53.342;-1.534;2023-07-31T14:26:16;5;3;
56688;PMS5003;42565;53.342;-1.534;2023-07-31T14:28:44;4;3;
56688;PMS5003;42565;53.342;-1.534;2023-07-31T14:31:11;3;3;
56688;PMS5003;42565;53.342;-1.534;2023-07-31T14:33:39;5;4;
56688;PMS5003;42565;53.342;-1.534;2023-07-31T14:36:06;3;3;
56688;PMS5003;42565;53.342;-1.534;2023-07-31T14:38:34;3;3;
56688;PMS5003;42565;53.342;-1.534;2023-07-31T14:41:01;3;3;
56688;PMS5003;42565;53.342;-1.534;2023-07-31T14:43:29;6;4;
56688;PMS5003;42565;53.342;-1.534;2023-07-31T14:45:56;3;3;
56688;PMS5003;42565;53.342;-1.534;2023-07-31T14:48:24;5;5;
56688;PMS5003;42565;53.342;-1.534;2023-07-31T14:50:51;4;4;
56688;PMS5003;42565;53.342;-1.534;2023-07-31T14:53:18;3;2;
56688;PMS5003;42565;53.342;-1.534;2023-07-31T14:55:46;3;3;
56688;PMS5003;42565;53.342;-1.534;2023-07-31T14:58:13;4;4;
56688;PMS5003;42565;53.342;-1.534;2023-07-31T15:00:41;4;3;
56688;PMS5003;42565;53.342;-1.534;2023-07-31T15:03:08;3;3;
56688;PMS5003;42565;53.342;-1.534;2023-07-31T15:05:36;3;3;
56688;PMS5003;42565;53.342;-1.534;2023-07-31T15:08:03;5;5;
56688;PMS5003;42565;53.342;-1.534;2023-07-31T15:10:31;2;2;
56688;PMS5003;42565;53.342;-1.534;2023-07-31T15:12:58;4;3;
56688;PMS5003;42565;53.342;-1.534;2023-07-31T15:15:26;4;4;
56688;PMS5003;42565;53.342;-1.534;2023-07-31T15:17:53;3;3;
56688;PMS5003;42565;53.342;-1.534;2023-07-31T15:20:21;2;2;
56688;PMS5003;42565;53.342;-1.534;2023-07-31T15:22:48;4;3;
56688;PMS5003;42565;53.342;-1.534;2023-07-31T15:25:16;3;3;
56688;PMS5003;42565;53.342;-1.534;2023-07-31T15:27:43;3;1;
56688;PMS5003;42565;53.342;-1.534;2023-07-31T15:30:11;4;4;
56688;PMS5003;42565;53.342;-1.534;2023-07-31T15:32:38;4;2;
56688;PMS5003;42565;53.342;-1.534;2023-07-31T15:35:06;4;3;
56688;PMS5003;42565;53.342;-1.534;2023-07-31T15:37:34;4;4;
56688;PMS5003;42565;53.342;-1.534;2023-07-31T15:40:02;4;3;
56688;PMS5003;42565;53.342;-1.534;2023-07-31T15:42:29;3;2;
56688;PMS5003;42565;53.342;-1.534;2023-07-31T15:44:57;4;3;
56688;PMS5003;42565;53.342;-1.534;2023-07-31T15:47:23;3;2;
56688;PMS5003;42565;53.342;-1.534;2023-07-31T15:49:51;2;1;
56688;PMS5003;42565;53.342;-1.534;2023-07-31T15:52:18;0;0;
56688;PMS5003;42565;53.342;-1.534;2023-07-31T15:54:46;0;0;
56688;PMS5003;42565;53.342;-1.534;2023-07-31T15:57:13;1;0;
56688;PMS5003;42565;53.342;-1.534;2023-07-31T15:59:41;0;0;
56688;PMS5003;42565;53.342;-1.534;2023-07-31T16:02:08;1;1;
56688;PMS5003;42565;53.342;-1.534;2023-07-31T16:04:36;1;1;
56688;PMS5003;42565;53.342;-1.534;2023-07-31T16:07:04;1;1;
56688;PMS5003;42565;53.342;-1.534;2023-07-31T16:09:31;0;0;
56688;PMS5003;42565;53.342;-1.534;2023-07-31T16:11:58;1;1;
56688;PMS5003;42565;53.342;-1.534;2023-07-31T16:14:25;1;1;
56688;PMS5003;42565;53.342;-1.534;2023-07-31T16:16:52;0;0;
56688;PMS5003;42565;53.342;-1.534;2023-07-31T16:19:19;0;0;
56688;PMS5003;42565;53.342;-1.534;2023-07-31T16:21:46;1;1;
56688;PMS5003;42565;53.342;-1.534;2023-07-31T16:24:14;1;1;
56688;PMS5003;42565;53.342;-1.534;2023-07-31T16:26:41;1;1;
56688;PMS5003;42565;53.342;-1.534;2023-07-31T16:29:09;0;0;
56688;PMS5003;42565;53.342;-1.534;2023-07-31T16:31:36;1;0;
56688;PMS5003;42565;53.342;-1.534;2023-07-31T16:34:04;1;1;
56688;PMS5003;42565;53.342;-1.534;2023-07-31T16:36:31;1;1;
56688;PMS5003;42565;53.342;-1.534;2023-07-31T16:38:58;1;0;
56688;PMS5003;42565;53.342;-1.534;2023-07-31T16:41:25;0;0;